sensor_id;sensor_type;location;lat;lon;timestamp;P1;durP1;ratioP1;P2;durP2;ratioP2
61635;SDS011;59438;45.014;39.006;2023-03-31T00:02:25;5.07;;;2.42;;
61635;SDS011;59438;45.014;39.006;2023-03-31T00:04:51;4.57;;;2.10;;
61635;SDS011;59438;45.014;39.006;2023-03-31T00:07:19;3.17;;;2.22;;
61635;SDS011;59438;45.014;39.006;2023-03-31T00:09:46;5.18;;;2.38;;
61635;SDS011;59438;45.014;39.006;2023-03-31T00:12:13;3.45;;;2.20;;
61635;SDS011;59438;45.014;39.006;2023-03-31T00:14:40;3.05;;;2.00;;
61635;SDS011;59438;45.014;39.006;2023-03-31T00:17:07;5.60;;;2.58;;
61635;SDS011;59438;45.014;39.006;2023-03-31T00:19:34;4.07;;;2.38;;
61635;SDS011;59438;45.014;39.006;2023-03-31T00:22:00;4.15;;;2.30;;
61635;SDS011;59438;45.014;39.006;2023-03-31T00:24:29;4.10;;;2.70;;
61635;SDS011;59438;45.014;39.006;2023-03-31T00:26:55;3.45;;;2.47;;
61635;SDS011;59438;45.014;39.006;2023-03-31T00:29:21;4.50;;;2.35;;
61635;SDS011;59438;45.014;39.006;2023-03-31T00:31:48;3.78;;;2.58;;
61635;SDS011;59438;45.014;39.006;2023-03-31T00:34:14;6.28;;;2.67;;
61635;SDS011;59438;45.014;39.006;2023-03-31T00:36:40;9.13;;;2.88;;
61635;SDS011;59438;45.014;39.006;2023-03-31T00:39:08;5.75;;;3.03;;
61635;SDS011;59438;45.014;39.006;2023-03-31T00:41:36;9.20;;;2.90;;
61635;SDS011;59438;45.014;39.006;2023-03-31T00:44:09;6.13;;;3.23;;
61635;SDS011;59438;45.014;39.006;2023-03-31T00:46:39;5.65;;;2.92;;
61635;SDS011;59438;45.014;39.006;2023-03-31T00:49:11;6.22;;;3.25;;
61635;SDS011;59438;45.014;39.006;2023-03-31T00:51:43;4.50;;;2.85;;
61635;SDS011;59438;45.014;39.006;2023-03-31T00:54:09;3.72;;;2.30;;
61635;SDS011;59438;45.014;39.006;2023-03-31T00:56:38;4.75;;;2.65;;
61635;SDS011;59438;45.014;39.006;2023-03-31T00:59:09;6.07;;;2.70;;
61635;SDS011;59438;45.014;39.006;2023-03-31T01:01:36;4.07;;;2.47;;
61635;SDS011;59438;45.014;39.006;2023-03-31T01:04:05;3.83;;;2.20;;
61635;SDS011;59438;45.014;39.006;2023-03-31T01:06:32;3.50;;;2.38;;
61635;SDS011;59438;45.014;39.006;2023-03-31T01:08:59;3.20;;;2.60;;
61635;SDS011;59438;45.014;39.006;2023-03-31T01:11:27;4.30;;;2.38;;
61635;SDS011;59438;45.014;39.006;2023-03-31T01:13:57;5.32;;;2.70;;
61635;SDS011;59438;45.014;39.006;2023-03-31T01:16:23;7.00;;;2.60;;
61635;SDS011;59438;45.014;39.006;2023-03-31T01:18:50;5.57;;;2.67;;
61635;SDS011;59438;45.014;39.006;2023-03-31T01:24:21;5.97;;;2.33;;
61635;SDS011;59438;45.014;39.006;2023-03-31T01:27:07;4.72;;;2.97;;
61635;SDS011;59438;45.014;39.006;2023-03-31T01:29:57;10.25;;;2.90;;
61635;SDS011;59438;45.014;39.006;2023-03-31T01:35:41;4.38;;;2.45;;
61635;SDS011;59438;45.014;39.006;2023-03-31T01:38:34;4.63;;;2.60;;
61635;SDS011;59438;45.014;39.006;2023-03-31T01:41:32;4.88;;;2.35;;
61635;SDS011;59438;45.014;39.006;2023-03-31T01:44:08;4.88;;;3.00;;
61635;SDS011;59438;45.014;39.006;2023-03-31T01:46:45;4.78;;;2.35;;
61635;SDS011;59438;45.014;39.006;2023-03-31T01:49:20;4.57;;;2.10;;
61635;SDS011;59438;45.014;39.006;2023-03-31T01:51:51;5.47;;;2.60;;
61635;SDS011;59438;45.014;39.006;2023-03-31T01:54:26;6.90;;;2.58;;
61635;SDS011;59438;45.014;39.006;2023-03-31T01:57:00;3.72;;;2.30;;
61635;SDS011;59438;45.014;39.006;2023-03-31T01:59:33;6.95;;;2.40;;
61635;SDS011;59438;45.014;39.006;2023-03-31T02:02:05;3.28;;;2.20;;
61635;SDS011;59438;45.014;39.006;2023-03-31T02:04:39;2.65;;;1.90;;
61635;SDS011;59438;45.014;39.006;2023-03-31T02:07:09;3.72;;;2.15;;
61635;SDS011;59438;45.014;39.006;2023-03-31T02:09:41;2.78;;;1.92;;
61635;SDS011;59438;45.014;39.006;2023-03-31T02:12:11;3.37;;;2.07;;
61635;SDS011;59438;45.014;39.006;2023-03-31T02:14:40;5.53;;;2.30;;
61635;SDS011;59438;45.014;39.006;2023-03-31T02:17:10;5.50;;;2.35;;
61635;SDS011;59438;45.014;39.006;2023-03-31T02:19:42;6.18;;;2.10;;
61635;SDS011;59438;45.014;39.006;2023-03-31T02:22:10;6.50;;;2.97;;
61635;SDS011;59438;45.014;39.006;2023-03-31T02:24:38;3.75;;;2.28;;
61635;SDS011;59438;45.014;39.006;2023-03-31T02:27:08;2.50;;;1.80;;
61635;SDS011;59438;45.014;39.006;2023-03-31T02:29:40;2.80;;;1.80;;
61635;SDS011;59438;45.014;39.006;2023-03-31T02:32:08;5.65;;;1.80;;
61635;SDS011;59438;45.014;39.006;2023-03-31T02:34:39;3.58;;;2.20;;
61635;SDS011;59438;45.014;39.006;2023-03-31T02:37:06;3.40;;;2.17;;
61635;SDS011;59438;45.014;39.006;2023-03-31T02:39:33;6.70;;;2.10;;
61635;SDS011;59438;45.014;39.006;2023-03-31T02:42:01;2.90;;;2.10;;
61635;SDS011;59438;45.014;39.006;2023-03-31T02:44:29;8.40;;;2.00;;
61635;SDS011;59438;45.014;39.006;2023-03-31T02:46:57;3.63;;;1.77;;
61635;SDS011;59438;45.014;39.006;2023-03-31T02:49:23;2.30;;;1.50;;
61635;SDS011;59438;45.014;39.006;2023-03-31T02:52:00;2.40;;;1.40;;
61635;SDS011;59438;45.014;39.006;2023-03-31T02:54:45;2.63;;;1.40;;
61635;SDS011;59438;45.014;39.006;2023-03-31T02:57:35;3.45;;;1.48;;
61635;SDS011;59438;45.014;39.006;2023-03-31T03:00:14;4.43;;;1.40;;
61635;SDS011;59438;45.014;39.006;2023-03-31T03:02:51;4.43;;;1.40;;
61635;SDS011;59438;45.014;39.006;2023-03-31T03:05:31;2.67;;;1.50;;
61635;SDS011;59438;45.014;39.006;2023-03-31T03:08:07;1.92;;;1.40;;
61635;SDS011;59438;45.014;39.006;2023-03-31T03:10:41;2.50;;;1.33;;
61635;SDS011;59438;45.014;39.006;2023-03-31T03:13:15;3.97;;;1.40;;
61635;SDS011;59438;45.014;39.006;2023-03-31T03:15:46;4.72;;;1.50;;
61635;SDS011;59438;45.014;39.006;2023-03-31T03:18:16;3.35;;;1.40;;
61635;SDS011;59438;45.014;39.006;2023-03-31T03:20:43;2.35;;;1.50;;
61635;SDS011;59438;45.014;39.006;2023-03-31T03:23:10;2.22;;;1.35;;
61635;SDS011;59438;45.014;39.006;2023-03-31T03:25:36;1.83;;;1.30;;
61635;SDS011;59438;45.014;39.006;2023-03-31T03:28:02;2.30;;;1.65;;
61635;SDS011;59438;45.014;39.006;2023-03-31T03:30:29;2.92;;;1.38;;
61635;SDS011;59438;45.014;39.006;2023-03-31T03:32:55;2.08;;;1.38;;
61635;SDS011;59438;45.014;39.006;2023-03-31T03:35:23;2.17;;;1.42;;
61635;SDS011;59438;45.014;39.006;2023-03-31T03:37:49;2.15;;;1.10;;
61635;SDS011;59438;45.014;39.006;2023-03-31T03:40:16;4.25;;;1.40;;
61635;SDS011;59438;45.014;39.006;2023-03-31T03:42:42;2.75;;;1.27;;
61635;SDS011;59438;45.014;39.006;2023-03-31T03:45:09;1.20;;;1.10;;
61635;SDS011;59438;45.014;39.006;2023-03-31T03:47:35;4.00;;;1.20;;
61635;SDS011;59438;45.014;39.006;2023-03-31T03:50:01;2.17;;;1.30;;
61635;SDS011;59438;45.014;39.006;2023-03-31T03:52:29;1.10;;;1.00;;
61635;SDS011;59438;45.014;39.006;2023-03-31T03:54:55;1.08;;;0.90;;
61635;SDS011;59438;45.014;39.006;2023-03-31T03:57:22;4.38;;;1.00;;
61635;SDS011;59438;45.014;39.006;2023-03-31T03:59:48;2.08;;;1.02;;
61635;SDS011;59438;45.014;39.006;2023-03-31T04:02:14;1.30;;;1.20;;
61635;SDS011;59438;45.014;39.006;2023-03-31T04:04:41;1.58;;;1.08;;
61635;SDS011;59438;45.014;39.006;2023-03-31T04:07:07;1.95;;;1.00;;
61635;SDS011;59438;45.014;39.006;2023-03-31T04:09:35;2.63;;;1.10;;
61635;SDS011;59438;45.014;39.006;2023-03-31T04:12:02;1.10;;;1.00;;
61635;SDS011;59438;45.014;39.006;2023-03-31T04:14:28;2.88;;;1.30;;
61635;SDS011;59438;45.014;39.006;2023-03-31T04:16:55;2.47;;;1.13;;
61635;SDS011;59438;45.014;39.006;2023-03-31T04:19:21;1.30;;;1.20;;
61635;SDS011;59438;45.014;39.006;2023-03-31T04:21:47;5.78;;;1.10;;
61635;SDS011;59438;45.014;39.006;2023-03-31T04:24:14;1.63;;;1.17;;
61635;SDS011;59438;45.014;39.006;2023-03-31T04:26:41;1.35;;;1.10;;
61635;SDS011;59438;45.014;39.006;2023-03-31T04:29:08;2.30;;;1.10;;
61635;SDS011;59438;45.014;39.006;2023-03-31T04:31:35;1.48;;;1.10;;
61635;SDS011;59438;45.014;39.006;2023-03-31T04:34:01;1.10;;;1.00;;
61635;SDS011;59438;45.014;39.006;2023-03-31T04:36:28;2.28;;;1.02;;
61635;SDS011;59438;45.014;39.006;2023-03-31T04:38:54;2.40;;;1.00;;
61635;SDS011;59438;45.014;39.006;2023-03-31T04:41:21;1.27;;;1.10;;
61635;SDS011;59438;45.014;39.006;2023-03-31T04:43:49;1.33;;;1.00;;
61635;SDS011;59438;45.014;39.006;2023-03-31T04:46:15;3.47;;;1.00;;
61635;SDS011;59438;45.014;39.006;2023-03-31T04:48:42;3.85;;;1.20;;
61635;SDS011;59438;45.014;39.006;2023-03-31T04:51:08;1.00;;;0.90;;
61635;SDS011;59438;45.014;39.006;2023-03-31T04:53:34;2.08;;;1.20;;
61635;SDS011;59438;45.014;39.006;2023-03-31T04:56:01;2.38;;;1.08;;
61635;SDS011;59438;45.014;39.006;2023-03-31T04:58:27;1.77;;;1.10;;
61635;SDS011;59438;45.014;39.006;2023-03-31T05:00:55;4.18;;;1.20;;
61635;SDS011;59438;45.014;39.006;2023-03-31T05:03:21;2.45;;;1.20;;
61635;SDS011;59438;45.014;39.006;2023-03-31T05:05:47;2.58;;;1.35;;
61635;SDS011;59438;45.014;39.006;2023-03-31T05:08:15;3.40;;;1.13;;
61635;SDS011;59438;45.014;39.006;2023-03-31T05:10:42;1.48;;;1.15;;
61635;SDS011;59438;45.014;39.006;2023-03-31T05:13:09;1.77;;;1.30;;
61635;SDS011;59438;45.014;39.006;2023-03-31T05:15:36;1.73;;;1.17;;
61635;SDS011;59438;45.014;39.006;2023-03-31T05:18:04;3.40;;;1.52;;
61635;SDS011;59438;45.014;39.006;2023-03-31T05:20:31;5.10;;;1.63;;
61635;SDS011;59438;45.014;39.006;2023-03-31T05:22:58;8.13;;;1.88;;
61635;SDS011;59438;45.014;39.006;2023-03-31T05:25:24;4.82;;;1.50;;
61635;SDS011;59438;45.014;39.006;2023-03-31T05:27:50;4.70;;;1.65;;
61635;SDS011;59438;45.014;39.006;2023-03-31T05:30:17;3.17;;;1.75;;
61635;SDS011;59438;45.014;39.006;2023-03-31T05:32:43;3.63;;;1.50;;
61635;SDS011;59438;45.014;39.006;2023-03-31T05:35:11;7.10;;;1.70;;
61635;SDS011;59438;45.014;39.006;2023-03-31T05:37:37;2.40;;;1.30;;
61635;SDS011;59438;45.014;39.006;2023-03-31T05:40:04;3.58;;;1.30;;
61635;SDS011;59438;45.014;39.006;2023-03-31T05:42:31;2.70;;;1.40;;
61635;SDS011;59438;45.014;39.006;2023-03-31T05:44:58;3.90;;;1.50;;
61635;SDS011;59438;45.014;39.006;2023-03-31T05:47:24;2.65;;;1.33;;
61635;SDS011;59438;45.014;39.006;2023-03-31T05:49:50;4.53;;;1.00;;
61635;SDS011;59438;45.014;39.006;2023-03-31T05:52:18;4.07;;;1.40;;
61635;SDS011;59438;45.014;39.006;2023-03-31T05:54:45;3.35;;;1.30;;
61635;SDS011;59438;45.014;39.006;2023-03-31T05:57:11;2.67;;;1.30;;
61635;SDS011;59438;45.014;39.006;2023-03-31T05:59:38;3.10;;;1.20;;
61635;SDS011;59438;45.014;39.006;2023-03-31T06:02:04;3.28;;;1.50;;
61635;SDS011;59438;45.014;39.006;2023-03-31T06:04:31;3.75;;;1.20;;
61635;SDS011;59438;45.014;39.006;2023-03-31T06:06:57;1.30;;;1.00;;
61635;SDS011;59438;45.014;39.006;2023-03-31T06:09:25;2.63;;;1.20;;
61635;SDS011;59438;45.014;39.006;2023-03-31T06:11:52;3.45;;;1.42;;
61635;SDS011;59438;45.014;39.006;2023-03-31T06:14:18;3.70;;;1.20;;
61635;SDS011;59438;45.014;39.006;2023-03-31T06:16:45;2.55;;;1.23;;
61635;SDS011;59438;45.014;39.006;2023-03-31T06:19:11;2.92;;;1.17;;
61635;SDS011;59438;45.014;39.006;2023-03-31T06:21:37;1.48;;;1.08;;
61635;SDS011;59438;45.014;39.006;2023-03-31T06:24:04;2.97;;;1.20;;
61635;SDS011;59438;45.014;39.006;2023-03-31T06:26:32;5.50;;;1.58;;
61635;SDS011;59438;45.014;39.006;2023-03-31T06:28:58;3.03;;;1.27;;
61635;SDS011;59438;45.014;39.006;2023-03-31T06:31:25;4.35;;;1.25;;
61635;SDS011;59438;45.014;39.006;2023-03-31T06:33:51;2.50;;;1.13;;
61635;SDS011;59438;45.014;39.006;2023-03-31T06:36:18;2.05;;;1.40;;
61635;SDS011;59438;45.014;39.006;2023-03-31T06:38:46;3.95;;;1.42;;
61635;SDS011;59438;45.014;39.006;2023-03-31T06:41:13;3.22;;;1.40;;
61635;SDS011;59438;45.014;39.006;2023-03-31T06:43:42;5.43;;;1.40;;
61635;SDS011;59438;45.014;39.006;2023-03-31T06:46:08;4.30;;;1.20;;
61635;SDS011;59438;45.014;39.006;2023-03-31T06:48:34;5.00;;;1.73;;
61635;SDS011;59438;45.014;39.006;2023-03-31T06:51:01;2.85;;;1.80;;
61635;SDS011;59438;45.014;39.006;2023-03-31T06:53:29;7.32;;;2.10;;
61635;SDS011;59438;45.014;39.006;2023-03-31T06:55:56;1.42;;;1.20;;
61635;SDS011;59438;45.014;39.006;2023-03-31T06:58:22;4.20;;;1.30;;
61635;SDS011;59438;45.014;39.006;2023-03-31T07:00:50;5.20;;;1.27;;
61635;SDS011;59438;45.014;39.006;2023-03-31T07:03:17;2.38;;;1.30;;
61635;SDS011;59438;45.014;39.006;2023-03-31T07:05:46;3.55;;;1.38;;
61635;SDS011;59438;45.014;39.006;2023-03-31T07:08:13;4.00;;;1.10;;
61635;SDS011;59438;45.014;39.006;2023-03-31T07:10:40;5.20;;;1.50;;
61635;SDS011;59438;45.014;39.006;2023-03-31T07:13:06;3.20;;;1.33;;
61635;SDS011;59438;45.014;39.006;2023-03-31T07:15:32;2.63;;;1.05;;
61635;SDS011;59438;45.014;39.006;2023-03-31T07:18:00;4.95;;;1.33;;
61635;SDS011;59438;45.014;39.006;2023-03-31T07:20:27;4.47;;;1.40;;
61635;SDS011;59438;45.014;39.006;2023-03-31T07:22:54;4.68;;;2.20;;
61635;SDS011;59438;45.014;39.006;2023-03-31T07:25:20;2.55;;;1.35;;
61635;SDS011;59438;45.014;39.006;2023-03-31T07:27:47;8.43;;;1.33;;
61635;SDS011;59438;45.014;39.006;2023-03-31T07:30:14;2.55;;;1.20;;
61635;SDS011;59438;45.014;39.006;2023-03-31T07:32:41;4.85;;;2.00;;
61635;SDS011;59438;45.014;39.006;2023-03-31T07:35:10;4.10;;;2.47;;
61635;SDS011;59438;45.014;39.006;2023-03-31T07:37:37;6.25;;;1.70;;
61635;SDS011;59438;45.014;39.006;2023-03-31T07:40:04;3.47;;;1.40;;
61635;SDS011;59438;45.014;39.006;2023-03-31T07:42:32;2.72;;;1.63;;
61635;SDS011;59438;45.014;39.006;2023-03-31T07:44:59;3.45;;;1.83;;
61635;SDS011;59438;45.014;39.006;2023-03-31T07:47:26;6.00;;;2.30;;
61635;SDS011;59438;45.014;39.006;2023-03-31T07:49:53;3.97;;;1.40;;
61635;SDS011;59438;45.014;39.006;2023-03-31T07:52:21;7.20;;;1.50;;
61635;SDS011;59438;45.014;39.006;2023-03-31T07:54:48;5.45;;;1.40;;
61635;SDS011;59438;45.014;39.006;2023-03-31T07:57:14;3.50;;;1.15;;
61635;SDS011;59438;45.014;39.006;2023-03-31T07:59:41;2.42;;;1.30;;
61635;SDS011;59438;45.014;39.006;2023-03-31T08:02:08;5.30;;;1.30;;
61635;SDS011;59438;45.014;39.006;2023-03-31T08:04:37;3.40;;;1.35;;
61635;SDS011;59438;45.014;39.006;2023-03-31T08:07:03;3.97;;;1.33;;
61635;SDS011;59438;45.014;39.006;2023-03-31T08:09:31;3.47;;;1.35;;
61635;SDS011;59438;45.014;39.006;2023-03-31T08:11:58;1.52;;;1.10;;
61635;SDS011;59438;45.014;39.006;2023-03-31T08:14:24;1.30;;;0.90;;
61635;SDS011;59438;45.014;39.006;2023-03-31T08:16:50;4.75;;;1.85;;
61635;SDS011;59438;45.014;39.006;2023-03-31T08:19:17;1.55;;;1.13;;
61635;SDS011;59438;45.014;39.006;2023-03-31T08:21:43;2.13;;;1.00;;
61635;SDS011;59438;45.014;39.006;2023-03-31T08:24:09;5.90;;;1.70;;
61635;SDS011;59438;45.014;39.006;2023-03-31T08:26:37;2.90;;;1.42;;
61635;SDS011;59438;45.014;39.006;2023-03-31T08:29:05;2.22;;;1.17;;
61635;SDS011;59438;45.014;39.006;2023-03-31T08:31:31;3.85;;;1.33;;
61635;SDS011;59438;45.014;39.006;2023-03-31T08:33:58;2.33;;;1.70;;
61635;SDS011;59438;45.014;39.006;2023-03-31T08:36:24;7.55;;;2.05;;
61635;SDS011;59438;45.014;39.006;2023-03-31T08:38:51;7.80;;;1.27;;
61635;SDS011;59438;45.014;39.006;2023-03-31T08:41:25;4.88;;;1.40;;
61635;SDS011;59438;45.014;39.006;2023-03-31T08:44:01;5.88;;;1.10;;
61635;SDS011;59438;45.014;39.006;2023-03-31T08:46:33;4.40;;;1.60;;
61635;SDS011;59438;45.014;39.006;2023-03-31T08:49:00;4.45;;;1.45;;
61635;SDS011;59438;45.014;39.006;2023-03-31T08:51:30;4.68;;;1.30;;
61635;SDS011;59438;45.014;39.006;2023-03-31T08:53:59;2.28;;;1.20;;
61635;SDS011;59438;45.014;39.006;2023-03-31T08:56:27;2.83;;;1.00;;
61635;SDS011;59438;45.014;39.006;2023-03-31T08:58:55;2.40;;;1.00;;
61635;SDS011;59438;45.014;39.006;2023-03-31T09:01:25;4.43;;;1.23;;
61635;SDS011;59438;45.014;39.006;2023-03-31T09:04:05;2.22;;;1.02;;
61635;SDS011;59438;45.014;39.006;2023-03-31T09:06:45;3.05;;;1.05;;
61635;SDS011;59438;45.014;39.006;2023-03-31T09:09:20;1.55;;;1.10;;
61635;SDS011;59438;45.014;39.006;2023-03-31T09:11:55;1.52;;;1.02;;
61635;SDS011;59438;45.014;39.006;2023-03-31T09:14:28;2.58;;;1.05;;
61635;SDS011;59438;45.014;39.006;2023-03-31T09:17:09;3.60;;;1.95;;
61635;SDS011;59438;45.014;39.006;2023-03-31T09:19:42;1.10;;;0.93;;
61635;SDS011;59438;45.014;39.006;2023-03-31T09:22:15;2.33;;;1.10;;
61635;SDS011;59438;45.014;39.006;2023-03-31T09:27:14;2.15;;;0.90;;
61635;SDS011;59438;45.014;39.006;2023-03-31T09:29:42;2.97;;;1.02;;
61635;SDS011;59438;45.014;39.006;2023-03-31T09:32:15;3.33;;;0.90;;
61635;SDS011;59438;45.014;39.006;2023-03-31T09:34:43;0.88;;;0.88;;
61635;SDS011;59438;45.014;39.006;2023-03-31T09:37:11;1.88;;;1.08;;
61635;SDS011;59438;45.014;39.006;2023-03-31T09:39:38;2.33;;;1.10;;
61635;SDS011;59438;45.014;39.006;2023-03-31T09:42:05;2.45;;;1.20;;
61635;SDS011;59438;45.014;39.006;2023-03-31T09:44:36;2.58;;;1.00;;
61635;SDS011;59438;45.014;39.006;2023-03-31T09:47:04;3.38;;;1.10;;
61635;SDS011;59438;45.014;39.006;2023-03-31T09:49:34;9.85;;;1.10;;
61635;SDS011;59438;45.014;39.006;2023-03-31T09:52:03;2.75;;;1.00;;
61635;SDS011;59438;45.014;39.006;2023-03-31T09:54:38;2.55;;;1.20;;
61635;SDS011;59438;45.014;39.006;2023-03-31T09:57:14;5.20;;;1.00;;
61635;SDS011;59438;45.014;39.006;2023-03-31T09:59:49;2.97;;;1.20;;
61635;SDS011;59438;45.014;39.006;2023-03-31T10:02:21;4.75;;;2.22;;
61635;SDS011;59438;45.014;39.006;2023-03-31T10:04:59;3.92;;;1.70;;
61635;SDS011;59438;45.014;39.006;2023-03-31T10:07:25;2.00;;;1.30;;
61635;SDS011;59438;45.014;39.006;2023-03-31T10:09:52;3.88;;;1.23;;
61635;SDS011;59438;45.014;39.006;2023-03-31T10:12:20;2.47;;;1.20;;
61635;SDS011;59438;45.014;39.006;2023-03-31T10:14:50;5.22;;;2.50;;
61635;SDS011;59438;45.014;39.006;2023-03-31T10:17:19;4.68;;;2.20;;
61635;SDS011;59438;45.014;39.006;2023-03-31T10:19:47;6.80;;;1.80;;
61635;SDS011;59438;45.014;39.006;2023-03-31T10:22:25;4.68;;;1.60;;
61635;SDS011;59438;45.014;39.006;2023-03-31T10:24:54;4.60;;;1.98;;
61635;SDS011;59438;45.014;39.006;2023-03-31T10:27:33;3.17;;;1.35;;
61635;SDS011;59438;45.014;39.006;2023-03-31T10:30:03;3.58;;;2.15;;
61635;SDS011;59438;45.014;39.006;2023-03-31T10:32:37;3.80;;;1.40;;
61635;SDS011;59438;45.014;39.006;2023-03-31T10:35:06;5.05;;;1.20;;
61635;SDS011;59438;45.014;39.006;2023-03-31T10:37:42;2.83;;;1.02;;
61635;SDS011;59438;45.014;39.006;2023-03-31T10:40:12;6.80;;;2.40;;
61635;SDS011;59438;45.014;39.006;2023-03-31T10:42:48;4.38;;;2.67;;
61635;SDS011;59438;45.014;39.006;2023-03-31T10:45:23;5.72;;;2.08;;
61635;SDS011;59438;45.014;39.006;2023-03-31T10:47:51;1.48;;;1.08;;
61635;SDS011;59438;45.014;39.006;2023-03-31T10:50:19;5.70;;;1.80;;
61635;SDS011;59438;45.014;39.006;2023-03-31T10:52:54;1.98;;;1.50;;
61635;SDS011;59438;45.014;39.006;2023-03-31T10:55:29;4.20;;;1.30;;
61635;SDS011;59438;45.014;39.006;2023-03-31T10:58:01;1.25;;;1.15;;
61635;SDS011;59438;45.014;39.006;2023-03-31T11:00:39;1.92;;;1.30;;
61635;SDS011;59438;45.014;39.006;2023-03-31T11:03:26;3.80;;;1.92;;
61635;SDS011;59438;45.014;39.006;2023-03-31T11:06:08;3.53;;;1.50;;
61635;SDS011;59438;45.014;39.006;2023-03-31T11:08:44;2.90;;;1.00;;
61635;SDS011;59438;45.014;39.006;2023-03-31T11:11:21;3.78;;;1.55;;
61635;SDS011;59438;45.014;39.006;2023-03-31T11:13:55;2.25;;;1.20;;
61635;SDS011;59438;45.014;39.006;2023-03-31T11:16:27;2.65;;;1.15;;
61635;SDS011;59438;45.014;39.006;2023-03-31T11:19:07;3.05;;;1.00;;
61635;SDS011;59438;45.014;39.006;2023-03-31T11:21:49;2.92;;;1.00;;
61635;SDS011;59438;45.014;39.006;2023-03-31T11:24:32;1.90;;;1.00;;
61635;SDS011;59438;45.014;39.006;2023-03-31T11:27:16;2.78;;;1.08;;
61635;SDS011;59438;45.014;39.006;2023-03-31T11:29:55;2.40;;;1.00;;
61635;SDS011;59438;45.014;39.006;2023-03-31T11:32:32;4.00;;;1.00;;
61635;SDS011;59438;45.014;39.006;2023-03-31T11:35:15;1.55;;;0.95;;
61635;SDS011;59438;45.014;39.006;2023-03-31T11:37:59;1.15;;;1.00;;
61635;SDS011;59438;45.014;39.006;2023-03-31T11:40:45;1.60;;;1.08;;
61635;SDS011;59438;45.014;39.006;2023-03-31T11:43:19;2.55;;;1.10;;
61635;SDS011;59438;45.014;39.006;2023-03-31T11:45:53;2.65;;;1.20;;
61635;SDS011;59438;45.014;39.006;2023-03-31T11:48:28;3.25;;;1.00;;
61635;SDS011;59438;45.014;39.006;2023-03-31T11:51:00;2.25;;;1.10;;
61635;SDS011;59438;45.014;39.006;2023-03-31T11:53:30;2.35;;;1.10;;
61635;SDS011;59438;45.014;39.006;2023-03-31T11:56:01;3.13;;;1.10;;
61635;SDS011;59438;45.014;39.006;2023-03-31T11:58:31;2.85;;;1.10;;
61635;SDS011;59438;45.014;39.006;2023-03-31T12:01:03;1.67;;;0.85;;
61635;SDS011;59438;45.014;39.006;2023-03-31T12:03:40;1.48;;;0.90;;
61635;SDS011;59438;45.014;39.006;2023-03-31T12:06:11;3.05;;;1.00;;
61635;SDS011;59438;45.014;39.006;2023-03-31T12:08:40;2.33;;;1.30;;
61635;SDS011;59438;45.014;39.006;2023-03-31T12:11:14;4.05;;;1.50;;
61635;SDS011;59438;45.014;39.006;2023-03-31T12:13:48;3.15;;;1.17;;
61635;SDS011;59438;45.014;39.006;2023-03-31T12:16:19;1.83;;;0.90;;
61635;SDS011;59438;45.014;39.006;2023-03-31T12:18:54;2.05;;;1.15;;
61635;SDS011;59438;45.014;39.006;2023-03-31T12:21:25;1.40;;;0.75;;
61635;SDS011;59438;45.014;39.006;2023-03-31T12:23:53;1.60;;;1.10;;
61635;SDS011;59438;45.014;39.006;2023-03-31T12:26:26;3.15;;;0.90;;
61635;SDS011;59438;45.014;39.006;2023-03-31T12:29:03;2.65;;;1.20;;
61635;SDS011;59438;45.014;39.006;2023-03-31T12:31:32;2.50;;;1.48;;
61635;SDS011;59438;45.014;39.006;2023-03-31T12:34:03;5.25;;;1.98;;
61635;SDS011;59438;45.014;39.006;2023-03-31T12:36:39;2.08;;;1.45;;
61635;SDS011;59438;45.014;39.006;2023-03-31T12:39:22;4.03;;;1.60;;
61635;SDS011;59438;45.014;39.006;2023-03-31T12:42:03;3.03;;;1.45;;
61635;SDS011;59438;45.014;39.006;2023-03-31T12:44:51;2.13;;;1.00;;
61635;SDS011;59438;45.014;39.006;2023-03-31T12:47:26;1.42;;;1.20;;
61635;SDS011;59438;45.014;39.006;2023-03-31T12:50:03;2.13;;;1.17;;
61635;SDS011;59438;45.014;39.006;2023-03-31T12:52:42;3.45;;;1.20;;
61635;SDS011;59438;45.014;39.006;2023-03-31T13:01:02;3.70;;;1.20;;
61635;SDS011;59438;45.014;39.006;2023-03-31T13:06:49;5.38;;;2.20;;
61635;SDS011;59438;45.014;39.006;2023-03-31T13:12:18;2.53;;;1.30;;
61635;SDS011;59438;45.014;39.006;2023-03-31T13:14:47;1.50;;;1.00;;
61635;SDS011;59438;45.014;39.006;2023-03-31T13:22:58;3.72;;;1.60;;
61635;SDS011;59438;45.014;39.006;2023-03-31T13:25:36;2.60;;;0.80;;
61635;SDS011;59438;45.014;39.006;2023-03-31T13:28:08;6.72;;;1.20;;
61635;SDS011;59438;45.014;39.006;2023-03-31T13:30:55;4.20;;;1.25;;
61635;SDS011;59438;45.014;39.006;2023-03-31T13:33:26;16.88;;;2.60;;
61635;SDS011;59438;45.014;39.006;2023-03-31T13:36:03;11.48;;;2.17;;
61635;SDS011;59438;45.014;39.006;2023-03-31T13:38:46;109.05;;;4.10;;
61635;SDS011;59438;45.014;39.006;2023-03-31T13:41:28;13.13;;;1.98;;
61635;SDS011;59438;45.014;39.006;2023-03-31T13:50:15;5.47;;;1.80;;
61635;SDS011;59438;45.014;39.006;2023-03-31T13:52:56;5.10;;;1.70;;
61635;SDS011;59438;45.014;39.006;2023-03-31T13:55:43;2.38;;;1.20;;
61635;SDS011;59438;45.014;39.006;2023-03-31T13:58:53;1.20;;;1.00;;
61635;SDS011;59438;45.014;39.006;2023-03-31T14:04:40;6.03;;;1.30;;
61635;SDS011;59438;45.014;39.006;2023-03-31T14:07:27;5.15;;;1.27;;
61635;SDS011;59438;45.014;39.006;2023-03-31T14:09:57;13.32;;;1.70;;
61635;SDS011;59438;45.014;39.006;2023-03-31T14:12:29;2.95;;;1.30;;
61635;SDS011;59438;45.014;39.006;2023-03-31T14:14:56;4.18;;;2.13;;
61635;SDS011;59438;45.014;39.006;2023-03-31T14:17:25;6.63;;;1.90;;
61635;SDS011;59438;45.014;39.006;2023-03-31T14:19:57;9.90;;;1.30;;
61635;SDS011;59438;45.014;39.006;2023-03-31T14:22:39;4.05;;;1.23;;
61635;SDS011;59438;45.014;39.006;2023-03-31T14:25:12;3.53;;;1.10;;
61635;SDS011;59438;45.014;39.006;2023-03-31T14:27:48;5.55;;;1.35;;
61635;SDS011;59438;45.014;39.006;2023-03-31T14:30:26;5.78;;;1.80;;
61635;SDS011;59438;45.014;39.006;2023-03-31T14:33:05;5.60;;;1.80;;
61635;SDS011;59438;45.014;39.006;2023-03-31T14:35:41;7.22;;;2.75;;
61635;SDS011;59438;45.014;39.006;2023-03-31T14:38:17;6.95;;;2.25;;
61635;SDS011;59438;45.014;39.006;2023-03-31T14:40:47;4.18;;;3.05;;
61635;SDS011;59438;45.014;39.006;2023-03-31T14:43:18;5.95;;;1.92;;
61635;SDS011;59438;45.014;39.006;2023-03-31T14:48:13;2.38;;;1.30;;
61635;SDS011;59438;45.014;39.006;2023-03-31T14:50:41;3.53;;;1.40;;
61635;SDS011;59438;45.014;39.006;2023-03-31T14:53:12;6.65;;;1.60;;
61635;SDS011;59438;45.014;39.006;2023-03-31T14:55:41;6.75;;;1.70;;
61635;SDS011;59438;45.014;39.006;2023-03-31T14:58:10;5.13;;;1.40;;
61635;SDS011;59438;45.014;39.006;2023-03-31T15:00:40;2.20;;;1.40;;
61635;SDS011;59438;45.014;39.006;2023-03-31T15:03:07;4.63;;;1.30;;
61635;SDS011;59438;45.014;39.006;2023-03-31T15:05:38;2.72;;;1.40;;
61635;SDS011;59438;45.014;39.006;2023-03-31T15:08:05;6.80;;;1.70;;
61635;SDS011;59438;45.014;39.006;2023-03-31T15:10:36;3.42;;;1.73;;
61635;SDS011;59438;45.014;39.006;2023-03-31T15:13:08;18.23;;;3.92;;
61635;SDS011;59438;45.014;39.006;2023-03-31T15:15:36;3.20;;;1.55;;
61635;SDS011;59438;45.014;39.006;2023-03-31T15:18:03;5.28;;;1.52;;
61635;SDS011;59438;45.014;39.006;2023-03-31T15:20:30;4.95;;;1.67;;
61635;SDS011;59438;45.014;39.006;2023-03-31T15:23:01;4.45;;;2.03;;
61635;SDS011;59438;45.014;39.006;2023-03-31T15:25:30;2.80;;;1.60;;
61635;SDS011;59438;45.014;39.006;2023-03-31T15:28:01;3.70;;;1.60;;
61635;SDS011;59438;45.014;39.006;2023-03-31T15:30:32;5.70;;;1.70;;
61635;SDS011;59438;45.014;39.006;2023-03-31T15:32:58;5.47;;;1.70;;